Bumpus Mills, Tennessee
Current Conditions -  °F | °C
As of 6:11 AM on Monday 20 Oct 2014 (Local Time) from KHOP Reporting Station
Haze Haze  
Wind Chill: 48°   Ceiling: 13000
Heat Index: 48°   Visibility: 3mi
Dew Point: 48°   Wind: 2mph
Humidity: 100%   Direction: 170°S
Pressure: 30.06"   Gusts: NA
Location:  36.6°N, 87.84°W
Report Text: KHOP 201111Z AUTO 17002KT 3SM BR BKN130 09/09 A3006 RMK AO2
Loading
Personal Weather Stations






























Interactive Weather Map
Tropical Storm Tracking
New forecast layout! Learn more

10-Day Weather Forecast

Advertisements
Track Severe Weather on mobile